sensor_id;sensor_type;location;lat;lon;timestamp;P1;durP1;ratioP1;P2;durP2;ratioP2
21777;SDS011;11050;52.222;20.916;2023-02-01T00:00:25;18.03;;;8.73;;
21777;SDS011;11050;52.222;20.916;2023-02-01T00:02:50;16.60;;;9.43;;
21777;SDS011;11050;52.222;20.916;2023-02-01T00:05:16;12.97;;;8.07;;
21777;SDS011;11050;52.222;20.916;2023-02-01T00:07:41;14.43;;;8.57;;
21777;SDS011;11050;52.222;20.916;2023-02-01T00:10:07;12.40;;;6.93;;
21777;SDS011;11050;52.222;20.916;2023-02-01T00:12:34;13.87;;;7.60;;
21777;SDS011;11050;52.222;20.916;2023-02-01T00:15:00;11.40;;;6.93;;
21777;SDS011;11050;52.222;20.916;2023-02-01T00:17:25;7.73;;;4.80;;
21777;SDS011;11050;52.222;20.916;2023-02-01T00:19:51;8.63;;;5.07;;
21777;SDS011;11050;52.222;20.916;2023-02-01T00:22:17;8.93;;;5.30;;
21777;SDS011;11050;52.222;20.916;2023-02-01T00:24:43;8.27;;;5.17;;
21777;SDS011;11050;52.222;20.916;2023-02-01T00:27:09;7.30;;;3.43;;
21777;SDS011;11050;52.222;20.916;2023-02-01T00:29:34;5.23;;;3.07;;
21777;SDS011;11050;52.222;20.916;2023-02-01T00:32:00;6.70;;;3.73;;
21777;SDS011;11050;52.222;20.916;2023-02-01T00:34:26;6.83;;;3.30;;
21777;SDS011;11050;52.222;20.916;2023-02-01T00:36:51;3.83;;;1.70;;
21777;SDS011;11050;52.222;20.916;2023-02-01T00:39:17;6.17;;;2.57;;
21777;SDS011;11050;52.222;20.916;2023-02-01T00:41:43;3.50;;;2.27;;
21777;SDS011;11050;52.222;20.916;2023-02-01T00:44:09;3.83;;;1.60;;
21777;SDS011;11050;52.222;20.916;2023-02-01T00:46:35;4.53;;;2.27;;
21777;SDS011;11050;52.222;20.916;2023-02-01T00:49:01;2.20;;;1.50;;
21777;SDS011;11050;52.222;20.916;2023-02-01T00:51:28;4.37;;;1.93;;
21777;SDS011;11050;52.222;20.916;2023-02-01T00:53:55;2.67;;;1.90;;
21777;SDS011;11050;52.222;20.916;2023-02-01T00:56:21;2.73;;;1.10;;
21777;SDS011;11050;52.222;20.916;2023-02-01T00:58:47;4.70;;;1.70;;
21777;SDS011;11050;52.222;20.916;2023-02-01T01:01:14;3.07;;;1.27;;
21777;SDS011;11050;52.222;20.916;2023-02-01T01:03:51;4.43;;;1.63;;
21777;SDS011;11050;52.222;20.916;2023-02-01T01:06:21;4.27;;;1.60;;
21777;SDS011;11050;52.222;20.916;2023-02-01T01:08:52;2.77;;;0.90;;
21777;SDS011;11050;52.222;20.916;2023-02-01T01:11:21;4.73;;;2.23;;
21777;SDS011;11050;52.222;20.916;2023-02-01T01:13:50;3.13;;;1.20;;
21777;SDS011;11050;52.222;20.916;2023-02-01T01:16:18;4.00;;;1.27;;
21777;SDS011;11050;52.222;20.916;2023-02-01T01:18:46;5.43;;;1.33;;
21777;SDS011;11050;52.222;20.916;2023-02-01T01:21:13;7.83;;;1.83;;
21777;SDS011;11050;52.222;20.916;2023-02-01T01:23:41;3.47;;;1.00;;
21777;SDS011;11050;52.222;20.916;2023-02-01T01:26:15;8.30;;;1.30;;
21777;SDS011;11050;52.222;20.916;2023-02-01T01:28:43;4.23;;;1.17;;
21777;SDS011;11050;52.222;20.916;2023-02-01T01:31:10;3.57;;;1.00;;
21777;SDS011;11050;52.222;20.916;2023-02-01T01:33:38;1.77;;;0.83;;
21777;SDS011;11050;52.222;20.916;2023-02-01T01:36:05;5.00;;;1.47;;
21777;SDS011;11050;52.222;20.916;2023-02-01T01:38:36;2.77;;;1.10;;
21777;SDS011;11050;52.222;20.916;2023-02-01T01:41:02;1.40;;;0.83;;
21777;SDS011;11050;52.222;20.916;2023-02-01T01:43:46;3.57;;;1.33;;
21777;SDS011;11050;52.222;20.916;2023-02-01T01:46:15;2.33;;;1.10;;
21777;SDS011;11050;52.222;20.916;2023-02-01T01:48:42;5.07;;;1.20;;
21777;SDS011;11050;52.222;20.916;2023-02-01T01:51:10;5.00;;;1.67;;
21777;SDS011;11050;52.222;20.916;2023-02-01T01:53:47;7.97;;;1.80;;
21777;SDS011;11050;52.222;20.916;2023-02-01T01:56:26;6.37;;;1.70;;
21777;SDS011;11050;52.222;20.916;2023-02-01T01:58:54;5.67;;;2.17;;
21777;SDS011;11050;52.222;20.916;2023-02-01T02:01:21;5.30;;;1.60;;
21777;SDS011;11050;52.222;20.916;2023-02-01T02:03:47;3.37;;;1.40;;
21777;SDS011;11050;52.222;20.916;2023-02-01T02:06:26;7.13;;;1.50;;
21777;SDS011;11050;52.222;20.916;2023-02-01T02:09:00;8.20;;;2.20;;
21777;SDS011;11050;52.222;20.916;2023-02-01T02:11:26;7.10;;;2.00;;
21777;SDS011;11050;52.222;20.916;2023-02-01T02:13:53;4.40;;;1.10;;
21777;SDS011;11050;52.222;20.916;2023-02-01T02:33:38;10.57;;;2.40;;
21777;SDS011;11050;52.222;20.916;2023-02-01T02:42:51;7.37;;;2.30;;
21777;SDS011;11050;52.222;20.916;2023-02-01T02:46:00;5.27;;;1.60;;
21777;SDS011;11050;52.222;20.916;2023-02-01T02:49:10;13.17;;;2.47;;
21777;SDS011;11050;52.222;20.916;2023-02-01T02:51:55;5.30;;;1.67;;
21777;SDS011;11050;52.222;20.916;2023-02-01T02:54:48;4.37;;;1.47;;
21777;SDS011;11050;52.222;20.916;2023-02-01T02:57:26;11.17;;;2.60;;
21777;SDS011;11050;52.222;20.916;2023-02-01T03:00:24;10.60;;;2.47;;
21777;SDS011;11050;52.222;20.916;2023-02-01T03:03:15;10.40;;;2.30;;
21777;SDS011;11050;52.222;20.916;2023-02-01T03:05:59;12.37;;;2.83;;
21777;SDS011;11050;52.222;20.916;2023-02-01T03:08:26;12.27;;;2.90;;
21777;SDS011;11050;52.222;20.916;2023-02-01T03:11:06;4.83;;;1.40;;
21777;SDS011;11050;52.222;20.916;2023-02-01T03:16:31;10.13;;;2.40;;
21777;SDS011;11050;52.222;20.916;2023-02-01T03:22:04;6.77;;;1.73;;
21777;SDS011;11050;52.222;20.916;2023-02-01T03:29:59;8.23;;;2.27;;
21777;SDS011;11050;52.222;20.916;2023-02-01T03:32:43;13.40;;;2.47;;
21777;SDS011;11050;52.222;20.916;2023-02-01T03:42:13;17.10;;;3.10;;
21777;SDS011;11050;52.222;20.916;2023-02-01T03:47:37;14.07;;;3.20;;
21777;SDS011;11050;52.222;20.916;2023-02-01T03:50:12;13.33;;;2.30;;
21777;SDS011;11050;52.222;20.916;2023-02-01T03:52:45;14.63;;;2.63;;
21777;SDS011;11050;52.222;20.916;2023-02-01T03:55:20;12.20;;;4.00;;
21777;SDS011;11050;52.222;20.916;2023-02-01T04:00:52;11.30;;;3.40;;
21777;SDS011;11050;52.222;20.916;2023-02-01T04:03:24;13.67;;;2.87;;
21777;SDS011;11050;52.222;20.916;2023-02-01T04:05:51;11.03;;;2.50;;
21777;SDS011;11050;52.222;20.916;2023-02-01T04:08:21;12.33;;;2.57;;
21777;SDS011;11050;52.222;20.916;2023-02-01T04:10:48;13.77;;;3.60;;
21777;SDS011;11050;52.222;20.916;2023-02-01T04:13:14;12.17;;;2.90;;
21777;SDS011;11050;52.222;20.916;2023-02-01T04:15:40;7.93;;;1.90;;
21777;SDS011;11050;52.222;20.916;2023-02-01T04:18:06;6.73;;;2.03;;
21777;SDS011;11050;52.222;20.916;2023-02-01T04:20:31;8.23;;;2.00;;
21777;SDS011;11050;52.222;20.916;2023-02-01T04:22:57;9.60;;;2.60;;
21777;SDS011;11050;52.222;20.916;2023-02-01T04:25:23;10.87;;;2.10;;
21777;SDS011;11050;52.222;20.916;2023-02-01T04:27:49;10.50;;;2.17;;
21777;SDS011;11050;52.222;20.916;2023-02-01T04:30:15;7.43;;;1.80;;
21777;SDS011;11050;52.222;20.916;2023-02-01T04:32:41;14.43;;;2.67;;
21777;SDS011;11050;52.222;20.916;2023-02-01T04:35:07;11.30;;;2.00;;
21777;SDS011;11050;52.222;20.916;2023-02-01T04:37:33;8.77;;;1.53;;
21777;SDS011;11050;52.222;20.916;2023-02-01T04:40:00;10.63;;;2.43;;
21777;SDS011;11050;52.222;20.916;2023-02-01T04:42:25;10.30;;;2.60;;
21777;SDS011;11050;52.222;20.916;2023-02-01T04:44:51;10.47;;;1.43;;
21777;SDS011;11050;52.222;20.916;2023-02-01T04:47:17;7.40;;;1.63;;
21777;SDS011;11050;52.222;20.916;2023-02-01T04:49:43;9.03;;;2.87;;
21777;SDS011;11050;52.222;20.916;2023-02-01T04:52:08;7.13;;;1.60;;
21777;SDS011;11050;52.222;20.916;2023-02-01T04:54:34;3.83;;;1.20;;
21777;SDS011;11050;52.222;20.916;2023-02-01T04:57:00;11.07;;;2.03;;
21777;SDS011;11050;52.222;20.916;2023-02-01T04:59:26;21.00;;;2.93;;
21777;SDS011;11050;52.222;20.916;2023-02-01T05:01:52;10.03;;;1.90;;
21777;SDS011;11050;52.222;20.916;2023-02-01T05:04:18;11.07;;;2.60;;
21777;SDS011;11050;52.222;20.916;2023-02-01T05:06:44;12.33;;;2.13;;
21777;SDS011;11050;52.222;20.916;2023-02-01T05:09:10;7.37;;;1.93;;
21777;SDS011;11050;52.222;20.916;2023-02-01T05:11:36;8.40;;;2.00;;
21777;SDS011;11050;52.222;20.916;2023-02-01T05:14:20;17.43;;;2.17;;
21777;SDS011;11050;52.222;20.916;2023-02-01T05:16:46;7.63;;;1.77;;
21777;SDS011;11050;52.222;20.916;2023-02-01T05:19:12;17.40;;;2.83;;
21777;SDS011;11050;52.222;20.916;2023-02-01T05:21:38;7.47;;;1.83;;
21777;SDS011;11050;52.222;20.916;2023-02-01T05:24:04;8.53;;;2.43;;
21777;SDS011;11050;52.222;20.916;2023-02-01T05:26:38;13.27;;;2.77;;
21777;SDS011;11050;52.222;20.916;2023-02-01T05:29:07;5.97;;;1.40;;
21777;SDS011;11050;52.222;20.916;2023-02-01T05:31:34;19.60;;;2.83;;
21777;SDS011;11050;52.222;20.916;2023-02-01T05:34:00;15.40;;;2.57;;
21777;SDS011;11050;52.222;20.916;2023-02-01T05:36:26;9.63;;;2.47;;
21777;SDS011;11050;52.222;20.916;2023-02-01T05:38:52;10.17;;;1.90;;
21777;SDS011;11050;52.222;20.916;2023-02-01T05:41:18;12.67;;;2.30;;
21777;SDS011;11050;52.222;20.916;2023-02-01T05:43:44;16.97;;;2.80;;
21777;SDS011;11050;52.222;20.916;2023-02-01T05:46:10;11.67;;;2.20;;
21777;SDS011;11050;52.222;20.916;2023-02-01T05:48:37;11.10;;;2.70;;
21777;SDS011;11050;52.222;20.916;2023-02-01T05:51:07;13.77;;;2.83;;
21777;SDS011;11050;52.222;20.916;2023-02-01T05:53:35;11.80;;;2.00;;
21777;SDS011;11050;52.222;20.916;2023-02-01T05:56:00;15.73;;;3.33;;
21777;SDS011;11050;52.222;20.916;2023-02-01T05:58:26;14.50;;;3.47;;
21777;SDS011;11050;52.222;20.916;2023-02-01T06:00:52;13.77;;;2.80;;
21777;SDS011;11050;52.222;20.916;2023-02-01T06:03:18;12.53;;;2.93;;
21777;SDS011;11050;52.222;20.916;2023-02-01T06:05:44;9.73;;;1.80;;
21777;SDS011;11050;52.222;20.916;2023-02-01T06:08:11;15.33;;;3.43;;
21777;SDS011;11050;52.222;20.916;2023-02-01T06:10:38;8.27;;;2.20;;
21777;SDS011;11050;52.222;20.916;2023-02-01T06:13:04;8.27;;;1.80;;
21777;SDS011;11050;52.222;20.916;2023-02-01T06:15:30;9.07;;;2.10;;
21777;SDS011;11050;52.222;20.916;2023-02-01T06:17:57;7.93;;;2.03;;
21777;SDS011;11050;52.222;20.916;2023-02-01T06:20:23;7.17;;;2.00;;
21777;SDS011;11050;52.222;20.916;2023-02-01T06:22:49;10.13;;;2.90;;
21777;SDS011;11050;52.222;20.916;2023-02-01T06:25:14;13.37;;;2.63;;
21777;SDS011;11050;52.222;20.916;2023-02-01T06:27:42;7.20;;;2.33;;
21777;SDS011;11050;52.222;20.916;2023-02-01T06:30:09;11.73;;;2.50;;
21777;SDS011;11050;52.222;20.916;2023-02-01T06:32:40;11.83;;;2.70;;
21777;SDS011;11050;52.222;20.916;2023-02-01T06:35:07;10.77;;;2.67;;
21777;SDS011;11050;52.222;20.916;2023-02-01T06:37:41;13.07;;;2.50;;
21777;SDS011;11050;52.222;20.916;2023-02-01T06:40:08;12.37;;;2.73;;
21777;SDS011;11050;52.222;20.916;2023-02-01T06:42:34;11.30;;;2.70;;
21777;SDS011;11050;52.222;20.916;2023-02-01T06:45:00;6.20;;;1.90;;
21777;SDS011;11050;52.222;20.916;2023-02-01T06:47:25;8.00;;;2.50;;
21777;SDS011;11050;52.222;20.916;2023-02-01T06:49:51;9.07;;;2.03;;
21777;SDS011;11050;52.222;20.916;2023-02-01T06:52:17;10.00;;;2.40;;
21777;SDS011;11050;52.222;20.916;2023-02-01T06:54:43;7.87;;;2.00;;
21777;SDS011;11050;52.222;20.916;2023-02-01T06:57:08;8.53;;;2.27;;
21777;SDS011;11050;52.222;20.916;2023-02-01T06:59:34;8.20;;;2.30;;
21777;SDS011;11050;52.222;20.916;2023-02-01T07:02:00;12.27;;;2.67;;
21777;SDS011;11050;52.222;20.916;2023-02-01T07:04:25;6.30;;;1.70;;
21777;SDS011;11050;52.222;20.916;2023-02-01T07:06:51;6.73;;;1.83;;
21777;SDS011;11050;52.222;20.916;2023-02-01T07:09:17;9.70;;;2.50;;
21777;SDS011;11050;52.222;20.916;2023-02-01T07:11:43;14.53;;;2.93;;
21777;SDS011;11050;52.222;20.916;2023-02-01T07:14:12;9.97;;;2.97;;
21777;SDS011;11050;52.222;20.916;2023-02-01T07:16:38;9.40;;;2.60;;
21777;SDS011;11050;52.222;20.916;2023-02-01T07:19:03;6.00;;;2.27;;
21777;SDS011;11050;52.222;20.916;2023-02-01T07:21:30;13.97;;;2.50;;
21777;SDS011;11050;52.222;20.916;2023-02-01T07:23:56;15.40;;;3.20;;
21777;SDS011;11050;52.222;20.916;2023-02-01T07:26:22;20.90;;;3.83;;
21777;SDS011;11050;52.222;20.916;2023-02-01T07:28:48;9.60;;;1.73;;
21777;SDS011;11050;52.222;20.916;2023-02-01T07:31:15;13.10;;;2.60;;
21777;SDS011;11050;52.222;20.916;2023-02-01T07:33:45;16.30;;;3.17;;
21777;SDS011;11050;52.222;20.916;2023-02-01T07:36:14;13.40;;;3.10;;
21777;SDS011;11050;52.222;20.916;2023-02-01T07:38:41;13.27;;;2.83;;
21777;SDS011;11050;52.222;20.916;2023-02-01T07:41:07;15.13;;;3.37;;
21777;SDS011;11050;52.222;20.916;2023-02-01T07:43:34;10.53;;;2.40;;
21777;SDS011;11050;52.222;20.916;2023-02-01T07:46:01;9.67;;;2.90;;
21777;SDS011;11050;52.222;20.916;2023-02-01T07:48:29;12.30;;;2.67;;
21777;SDS011;11050;52.222;20.916;2023-02-01T07:51:07;11.33;;;2.60;;
21777;SDS011;11050;52.222;20.916;2023-02-01T07:53:36;7.93;;;2.00;;
21777;SDS011;11050;52.222;20.916;2023-02-01T07:56:03;18.00;;;2.97;;
21777;SDS011;11050;52.222;20.916;2023-02-01T07:58:36;15.07;;;3.67;;
21777;SDS011;11050;52.222;20.916;2023-02-01T08:01:01;13.40;;;3.40;;
21777;SDS011;11050;52.222;20.916;2023-02-01T08:03:49;12.40;;;2.50;;
21777;SDS011;11050;52.222;20.916;2023-02-01T08:06:38;11.93;;;2.90;;
21777;SDS011;11050;52.222;20.916;2023-02-01T08:09:05;24.30;;;5.00;;
21777;SDS011;11050;52.222;20.916;2023-02-01T08:11:36;15.63;;;3.33;;
21777;SDS011;11050;52.222;20.916;2023-02-01T08:14:03;10.77;;;3.23;;
21777;SDS011;11050;52.222;20.916;2023-02-01T08:16:30;14.20;;;2.80;;
21777;SDS011;11050;52.222;20.916;2023-02-01T08:18:56;13.70;;;2.93;;
21777;SDS011;11050;52.222;20.916;2023-02-01T08:21:26;16.63;;;3.33;;
21777;SDS011;11050;52.222;20.916;2023-02-01T08:24:02;14.83;;;2.80;;
21777;SDS011;11050;52.222;20.916;2023-02-01T08:26:30;14.27;;;2.80;;
21777;SDS011;11050;52.222;20.916;2023-02-01T08:28:57;9.90;;;2.20;;
21777;SDS011;11050;52.222;20.916;2023-02-01T08:31:26;13.90;;;2.37;;
21777;SDS011;11050;52.222;20.916;2023-02-01T08:33:55;8.50;;;2.20;;
21777;SDS011;11050;52.222;20.916;2023-02-01T08:36:27;13.13;;;3.57;;
21777;SDS011;11050;52.222;20.916;2023-02-01T08:38:55;10.60;;;2.47;;
21777;SDS011;11050;52.222;20.916;2023-02-01T08:41:22;16.03;;;2.97;;
21777;SDS011;11050;52.222;20.916;2023-02-01T08:43:50;12.67;;;3.60;;
21777;SDS011;11050;52.222;20.916;2023-02-01T08:46:19;9.27;;;2.20;;
21777;SDS011;11050;52.222;20.916;2023-02-01T08:48:45;16.53;;;3.27;;
21777;SDS011;11050;52.222;20.916;2023-02-01T08:51:12;8.93;;;2.87;;
21777;SDS011;11050;52.222;20.916;2023-02-01T08:53:40;11.97;;;3.37;;
21777;SDS011;11050;52.222;20.916;2023-02-01T08:56:07;13.60;;;3.27;;
21777;SDS011;11050;52.222;20.916;2023-02-01T08:58:34;14.93;;;3.63;;
21777;SDS011;11050;52.222;20.916;2023-02-01T09:01:03;13.73;;;2.80;;
21777;SDS011;11050;52.222;20.916;2023-02-01T09:03:30;13.47;;;2.40;;
21777;SDS011;11050;52.222;20.916;2023-02-01T09:06:06;14.40;;;2.27;;
21777;SDS011;11050;52.222;20.916;2023-02-01T09:08:35;19.90;;;3.57;;
21777;SDS011;11050;52.222;20.916;2023-02-01T09:11:04;15.50;;;2.53;;
21777;SDS011;11050;52.222;20.916;2023-02-01T09:13:37;19.73;;;3.33;;
21777;SDS011;11050;52.222;20.916;2023-02-01T09:16:03;9.23;;;2.43;;
21777;SDS011;11050;52.222;20.916;2023-02-01T09:18:29;10.03;;;2.10;;
21777;SDS011;11050;52.222;20.916;2023-02-01T09:20:55;10.83;;;2.73;;
21777;SDS011;11050;52.222;20.916;2023-02-01T09:23:21;13.20;;;2.70;;
21777;SDS011;11050;52.222;20.916;2023-02-01T09:25:47;13.13;;;2.83;;
21777;SDS011;11050;52.222;20.916;2023-02-01T09:28:16;17.83;;;2.63;;
21777;SDS011;11050;52.222;20.916;2023-02-01T09:30:43;10.43;;;2.90;;
21777;SDS011;11050;52.222;20.916;2023-02-01T09:33:09;9.57;;;2.67;;
21777;SDS011;11050;52.222;20.916;2023-02-01T09:35:34;11.10;;;2.80;;
21777;SDS011;11050;52.222;20.916;2023-02-01T09:38:00;11.23;;;2.90;;
21777;SDS011;11050;52.222;20.916;2023-02-01T09:40:26;14.57;;;2.47;;
21777;SDS011;11050;52.222;20.916;2023-02-01T09:43:01;10.10;;;2.00;;
21777;SDS011;11050;52.222;20.916;2023-02-01T09:48:49;12.33;;;3.47;;
21777;SDS011;11050;52.222;20.916;2023-02-01T09:51:22;10.60;;;2.70;;
21777;SDS011;11050;52.222;20.916;2023-02-01T09:56:40;11.97;;;2.67;;
21777;SDS011;11050;52.222;20.916;2023-02-01T10:02:18;13.97;;;2.67;;
21777;SDS011;11050;52.222;20.916;2023-02-01T10:04:48;9.20;;;2.27;;
21777;SDS011;11050;52.222;20.916;2023-02-01T10:09:58;9.27;;;2.33;;
21777;SDS011;11050;52.222;20.916;2023-02-01T10:18:24;10.37;;;1.80;;
21777;SDS011;11050;52.222;20.916;2023-02-01T10:30:34;6.37;;;1.80;;
21777;SDS011;11050;52.222;20.916;2023-02-01T10:32:54;6.40;;;2.27;;
21777;SDS011;11050;52.222;20.916;2023-02-01T10:35:30;8.57;;;2.23;;
21777;SDS011;11050;52.222;20.916;2023-02-01T10:38:01;15.60;;;3.20;;
21777;SDS011;11050;52.222;20.916;2023-02-01T10:40:37;9.93;;;2.73;;
21777;SDS011;11050;52.222;20.916;2023-02-01T10:43:03;14.70;;;3.23;;
21777;SDS011;11050;52.222;20.916;2023-02-01T10:45:29;18.90;;;3.17;;
21777;SDS011;11050;52.222;20.916;2023-02-01T10:47:59;15.50;;;3.43;;
21777;SDS011;11050;52.222;20.916;2023-02-01T10:53:18;8.53;;;2.33;;
21777;SDS011;11050;52.222;20.916;2023-02-01T10:56:24;8.63;;;2.70;;
21777;SDS011;11050;52.222;20.916;2023-02-01T10:59:04;10.20;;;2.63;;
21777;SDS011;11050;52.222;20.916;2023-02-01T11:01:35;16.20;;;4.10;;
21777;SDS011;11050;52.222;20.916;2023-02-01T11:04:19;15.43;;;3.97;;
21777;SDS011;11050;52.222;20.916;2023-02-01T11:06:49;7.77;;;2.80;;
21777;SDS011;11050;52.222;20.916;2023-02-01T11:09:48;10.37;;;2.93;;
21777;SDS011;11050;52.222;20.916;2023-02-01T11:12:38;17.13;;;3.60;;
21777;SDS011;11050;52.222;20.916;2023-02-01T11:15:20;12.90;;;3.23;;
21777;SDS011;11050;52.222;20.916;2023-02-01T11:17:49;9.57;;;2.60;;
21777;SDS011;11050;52.222;20.916;2023-02-01T11:20:19;11.73;;;3.13;;
21777;SDS011;11050;52.222;20.916;2023-02-01T11:23:12;9.60;;;3.30;;
21777;SDS011;11050;52.222;20.916;2023-02-01T11:25:58;9.57;;;3.27;;
21777;SDS011;11050;52.222;20.916;2023-02-01T11:28:32;12.57;;;3.17;;
21777;SDS011;11050;52.222;20.916;2023-02-01T11:31:03;12.00;;;3.10;;
21777;SDS011;11050;52.222;20.916;2023-02-01T11:33:35;10.03;;;2.57;;
21777;SDS011;11050;52.222;20.916;2023-02-01T11:36:09;13.20;;;2.60;;
21777;SDS011;11050;52.222;20.916;2023-02-01T11:38:53;5.90;;;2.23;;
21777;SDS011;11050;52.222;20.916;2023-02-01T11:41:43;10.43;;;3.47;;
21777;SDS011;11050;52.222;20.916;2023-02-01T11:47:59;12.10;;;3.87;;
21777;SDS011;11050;52.222;20.916;2023-02-01T11:53:41;12.07;;;3.20;;
21777;SDS011;11050;52.222;20.916;2023-02-01T11:59:05;5.97;;;1.90;;
21777;SDS011;11050;52.222;20.916;2023-02-01T12:11:34;12.97;;;3.57;;
21777;SDS011;11050;52.222;20.916;2023-02-01T12:14:18;17.40;;;3.50;;
21777;SDS011;11050;52.222;20.916;2023-02-01T12:31:43;9.63;;;3.20;;
21777;SDS011;11050;52.222;20.916;2023-02-01T12:46:03;17.40;;;4.80;;
21777;SDS011;11050;52.222;20.916;2023-02-01T12:51:35;19.93;;;4.93;;
21777;SDS011;11050;52.222;20.916;2023-02-01T12:57:04;17.37;;;4.30;;
21777;SDS011;11050;52.222;20.916;2023-02-01T12:59:55;18.03;;;4.00;;
21777;SDS011;11050;52.222;20.916;2023-02-01T13:02:50;20.97;;;4.03;;
21777;SDS011;11050;52.222;20.916;2023-02-01T13:05:45;18.00;;;4.23;;
21777;SDS011;11050;52.222;20.916;2023-02-01T13:08:25;17.23;;;3.87;;
21777;SDS011;11050;52.222;20.916;2023-02-01T13:11:10;15.60;;;4.17;;
21777;SDS011;11050;52.222;20.916;2023-02-01T13:17:10;18.60;;;4.47;;
21777;SDS011;11050;52.222;20.916;2023-02-01T13:22:31;12.07;;;3.73;;
21777;SDS011;11050;52.222;20.916;2023-02-01T13:27:45;13.83;;;4.10;;
21777;SDS011;11050;52.222;20.916;2023-02-01T13:30:17;16.47;;;4.53;;
21777;SDS011;11050;52.222;20.916;2023-02-01T13:32:57;12.73;;;2.50;;
21777;SDS011;11050;52.222;20.916;2023-02-01T13:42:02;11.73;;;3.77;;
21777;SDS011;11050;52.222;20.916;2023-02-01T13:44:42;12.00;;;3.90;;
21777;SDS011;11050;52.222;20.916;2023-02-01T13:49:52;8.67;;;3.33;;
21777;SDS011;11050;52.222;20.916;2023-02-01T13:52:29;8.43;;;2.70;;
21777;SDS011;11050;52.222;20.916;2023-02-01T13:57:41;10.80;;;3.90;;
21777;SDS011;11050;52.222;20.916;2023-02-01T14:10:54;13.27;;;4.37;;
21777;SDS011;11050;52.222;20.916;2023-02-01T14:13:37;13.37;;;3.97;;
21777;SDS011;11050;52.222;20.916;2023-02-01T14:23:40;9.57;;;4.10;;
21777;SDS011;11050;52.222;20.916;2023-02-01T14:26:11;12.70;;;4.27;;
21777;SDS011;11050;52.222;20.916;2023-02-01T14:28:52;12.23;;;4.23;;
21777;SDS011;11050;52.222;20.916;2023-02-01T14:34:10;9.03;;;3.53;;
21777;SDS011;11050;52.222;20.916;2023-02-01T14:36:57;16.77;;;3.97;;
21777;SDS011;11050;52.222;20.916;2023-02-01T14:39:38;10.33;;;4.03;;
21777;SDS011;11050;52.222;20.916;2023-02-01T14:42:54;11.07;;;3.90;;
21777;SDS011;11050;52.222;20.916;2023-02-01T14:47:45;9.80;;;3.37;;
21777;SDS011;11050;52.222;20.916;2023-02-01T15:04:06;5.37;;;2.77;;
21777;SDS011;11050;52.222;20.916;2023-02-01T15:06:38;5.80;;;3.17;;
21777;SDS011;11050;52.222;20.916;2023-02-01T15:14:30;13.77;;;5.87;;
21777;SDS011;11050;52.222;20.916;2023-02-01T15:17:20;12.80;;;5.97;;
21777;SDS011;11050;52.222;20.916;2023-02-01T15:22:37;14.67;;;9.50;;
21777;SDS011;11050;52.222;20.916;2023-02-01T15:25:02;6.30;;;3.00;;
21777;SDS011;11050;52.222;20.916;2023-02-01T15:27:29;11.13;;;6.47;;
21777;SDS011;11050;52.222;20.916;2023-02-01T15:30:07;10.70;;;4.47;;
21777;SDS011;11050;52.222;20.916;2023-02-01T15:32:46;9.40;;;4.07;;
21777;SDS011;11050;52.222;20.916;2023-02-01T15:43:37;11.47;;;5.57;;
21777;SDS011;11050;52.222;20.916;2023-02-01T15:46:34;9.17;;;4.80;;
21777;SDS011;11050;52.222;20.916;2023-02-01T15:49:04;13.93;;;6.23;;
21777;SDS011;11050;52.222;20.916;2023-02-01T15:51:58;19.03;;;10.97;;
21777;SDS011;11050;52.222;20.916;2023-02-01T15:54:31;13.97;;;7.40;;
21777;SDS011;11050;52.222;20.916;2023-02-01T15:57:11;14.00;;;6.77;;
21777;SDS011;11050;52.222;20.916;2023-02-01T15:59:45;11.23;;;5.77;;
21777;SDS011;11050;52.222;20.916;2023-02-01T16:05:32;11.27;;;5.27;;
21777;SDS011;11050;52.222;20.916;2023-02-01T16:10:39;11.87;;;5.43;;
21777;SDS011;11050;52.222;20.916;2023-02-01T16:13:08;10.00;;;5.30;;
21777;SDS011;11050;52.222;20.916;2023-02-01T16:15:35;6.77;;;4.33;;
21777;SDS011;11050;52.222;20.916;2023-02-01T16:18:01;10.57;;;5.13;;
21777;SDS011;11050;52.222;20.916;2023-02-01T16:20:27;12.80;;;5.77;;
21777;SDS011;11050;52.222;20.916;2023-02-01T16:22:54;11.20;;;6.07;;
21777;SDS011;11050;52.222;20.916;2023-02-01T16:25:20;12.83;;;5.73;;
21777;SDS011;11050;52.222;20.916;2023-02-01T16:27:46;28.87;;;15.93;;
21777;SDS011;11050;52.222;20.916;2023-02-01T16:30:12;12.97;;;5.70;;
21777;SDS011;11050;52.222;20.916;2023-02-01T16:32:38;16.63;;;8.57;;
21777;SDS011;11050;52.222;20.916;2023-02-01T16:35:04;14.70;;;7.77;;
21777;SDS011;11050;52.222;20.916;2023-02-01T16:37:43;17.67;;;10.60;;
21777;SDS011;11050;52.222;20.916;2023-02-01T16:40:13;20.03;;;7.00;;
21777;SDS011;11050;52.222;20.916;2023-02-01T16:42:44;9.27;;;5.00;;
21777;SDS011;11050;52.222;20.916;2023-02-01T16:45:14;11.37;;;4.87;;
21777;SDS011;11050;52.222;20.916;2023-02-01T16:47:41;10.23;;;5.83;;
21777;SDS011;11050;52.222;20.916;2023-02-01T16:50:17;9.20;;;4.33;;
21777;SDS011;11050;52.222;20.916;2023-02-01T16:52:47;11.50;;;6.20;;
21777;SDS011;11050;52.222;20.916;2023-02-01T16:55:13;13.17;;;7.17;;
21777;SDS011;11050;52.222;20.916;2023-02-01T16:57:42;8.70;;;5.47;;
21777;SDS011;11050;52.222;20.916;2023-02-01T17:00:09;16.83;;;6.57;;
21777;SDS011;11050;52.222;20.916;2023-02-01T17:02:40;7.97;;;4.83;;
21777;SDS011;11050;52.222;20.916;2023-02-01T17:05:07;12.70;;;5.37;;
21777;SDS011;11050;52.222;20.916;2023-02-01T17:07:34;11.27;;;4.83;;
21777;SDS011;11050;52.222;20.916;2023-02-01T17:10:03;10.80;;;6.03;;
21777;SDS011;11050;52.222;20.916;2023-02-01T17:12:34;15.07;;;7.17;;
21777;SDS011;11050;52.222;20.916;2023-02-01T17:14:59;13.90;;;7.13;;
21777;SDS011;11050;52.222;20.916;2023-02-01T17:17:27;13.53;;;6.80;;
21777;SDS011;11050;52.222;20.916;2023-02-01T17:20:00;16.33;;;7.47;;
21777;SDS011;11050;52.222;20.916;2023-02-01T17:22:26;15.57;;;7.73;;
21777;SDS011;11050;52.222;20.916;2023-02-01T17:24:51;14.33;;;8.33;;
21777;SDS011;11050;52.222;20.916;2023-02-01T17:27:18;14.93;;;7.37;;
21777;SDS011;11050;52.222;20.916;2023-02-01T17:29:43;14.87;;;7.07;;
21777;SDS011;11050;52.222;20.916;2023-02-01T17:32:20;17.80;;;5.47;;
21777;SDS011;11050;52.222;20.916;2023-02-01T17:34:49;12.80;;;7.03;;
21777;SDS011;11050;52.222;20.916;2023-02-01T17:39:57;12.90;;;7.00;;
21777;SDS011;11050;52.222;20.916;2023-02-01T17:42:25;15.37;;;6.27;;
21777;SDS011;11050;52.222;20.916;2023-02-01T17:44:56;19.33;;;9.30;;
21777;SDS011;11050;52.222;20.916;2023-02-01T17:47:25;15.87;;;7.33;;
21777;SDS011;11050;52.222;20.916;2023-02-01T17:49:51;15.53;;;6.30;;
21777;SDS011;11050;52.222;20.916;2023-02-01T17:52:20;17.63;;;8.10;;
21777;SDS011;11050;52.222;20.916;2023-02-01T17:54:49;10.77;;;6.50;;
21777;SDS011;11050;52.222;20.916;2023-02-01T17:57:17;17.83;;;9.00;;
21777;SDS011;11050;52.222;20.916;2023-02-01T17:59:43;13.13;;;4.73;;
21777;SDS011;11050;52.222;20.916;2023-02-01T18:02:19;20.30;;;8.43;;
21777;SDS011;11050;52.222;20.916;2023-02-01T18:04:49;18.73;;;8.87;;
21777;SDS011;11050;52.222;20.916;2023-02-01T18:07:16;19.70;;;10.00;;
21777;SDS011;11050;52.222;20.916;2023-02-01T18:09:42;18.50;;;9.00;;
21777;SDS011;11050;52.222;20.916;2023-02-01T18:12:13;7.47;;;3.53;;
21777;SDS011;11050;52.222;20.916;2023-02-01T18:14:45;16.83;;;8.60;;
21777;SDS011;11050;52.222;20.916;2023-02-01T18:17:11;18.87;;;7.57;;
21777;SDS011;11050;52.222;20.916;2023-02-01T18:19:37;12.47;;;4.93;;